createdAt,value
2023-05-05T00:02:26.748Z,99.90
2023-05-05T00:04:56.160Z,99.90
2023-05-05T00:07:24.090Z,99.90
2023-05-05T00:09:52.536Z,99.90
2023-05-05T00:12:20.609Z,99.90
2023-05-05T00:14:48.573Z,99.90
2023-05-05T00:17:17.182Z,99.90
2023-05-05T00:19:45.271Z,99.90
2023-05-05T00:22:14.720Z,99.90
2023-05-05T00:24:42.906Z,99.90
2023-05-05T00:27:13.167Z,99.90
2023-05-05T00:29:41.120Z,99.90
2023-05-05T00:32:09.280Z,99.90
2023-05-05T00:34:37.258Z,99.90
2023-05-05T00:37:05.477Z,99.90
2023-05-05T00:39:34.781Z,99.90
2023-05-05T00:42:02.851Z,99.90
2023-05-05T00:44:39.117Z,99.90
2023-05-05T00:47:07.403Z,99.90
2023-05-05T00:49:36.060Z,99.90
2023-05-05T00:52:06.668Z,99.90
2023-05-05T00:54:36.503Z,99.90
2023-05-05T00:57:05.308Z,99.90
2023-05-05T00:59:34.952Z,99.90
2023-05-05T01:02:03.036Z,99.90
2023-05-05T01:04:31.097Z,99.90
2023-05-05T01:07:12.706Z,99.90
2023-05-05T01:09:57.983Z,99.90
2023-05-05T01:12:38.271Z,99.90
2023-05-05T01:15:16.385Z,99.90
2023-05-05T01:17:50.972Z,99.90
2023-05-05T01:20:24.880Z,99.90
2023-05-05T01:22:58.606Z,99.90
2023-05-05T01:25:50.357Z,99.90
2023-05-05T01:28:35.799Z,99.90
2023-05-05T01:31:18.493Z,99.90
2023-05-05T01:33:52.781Z,99.90
2023-05-05T01:36:26.139Z,99.90
2023-05-05T01:38:59.955Z,99.90
2023-05-05T01:41:31.722Z,99.90
2023-05-05T01:44:02.198Z,99.90
2023-05-05T01:46:31.252Z,99.90
2023-05-05T01:49:00.832Z,99.90
2023-05-05T01:51:30.152Z,99.90
2023-05-05T01:54:00.853Z,99.90
2023-05-05T01:56:30.972Z,99.90
2023-05-05T01:59:01.534Z,99.90
2023-05-05T02:01:31.243Z,99.90
2023-05-05T02:04:01.375Z,99.90
2023-05-05T02:06:32.641Z,99.90
2023-05-05T02:09:03.364Z,99.90
2023-05-05T02:11:31.927Z,99.90
2023-05-05T02:14:02.021Z,99.90
2023-05-05T02:16:31.193Z,99.90
2023-05-05T02:19:05.003Z,99.90
2023-05-05T02:21:33.967Z,99.90
2023-05-05T02:24:02.263Z,99.90
2023-05-05T02:26:32.081Z,99.90
2023-05-05T02:29:07.291Z,99.90
2023-05-05T02:31:40.293Z,99.90
2023-05-05T02:34:10.820Z,99.90
2023-05-05T02:36:42.428Z,99.90
2023-05-05T02:39:14.832Z,99.90
2023-05-05T02:41:46.078Z,99.90
2023-05-05T02:44:25.652Z,99.90
2023-05-05T02:46:55.380Z,99.90
2023-05-05T02:49:26.022Z,99.90
2023-05-05T02:51:59.055Z,99.90
2023-05-05T02:54:33.066Z,99.90
2023-05-05T02:57:04.001Z,99.90
2023-05-05T02:59:41.796Z,99.90
2023-05-05T03:02:18.939Z,99.90
2023-05-05T03:04:52.633Z,99.90
2023-05-05T03:07:27.172Z,99.90
2023-05-05T03:10:04.013Z,99.90
2023-05-05T03:12:39.185Z,99.90
2023-05-05T03:15:30.124Z,99.90
2023-05-05T03:18:00.265Z,99.90
2023-05-05T03:20:30.652Z,99.90
2023-05-05T03:23:04.042Z,99.90
2023-05-05T03:25:44.239Z,99.90
2023-05-05T03:28:17.020Z,99.90
2023-05-05T03:30:45.363Z,99.90
2023-05-05T03:33:17.354Z,99.90
2023-05-05T03:35:46.987Z,99.90
2023-05-05T03:38:15.759Z,99.90
2023-05-05T03:40:44.995Z,99.90
2023-05-05T03:43:16.860Z,99.90
2023-05-05T03:45:44.904Z,99.90
2023-05-05T03:48:13.219Z,99.90
2023-05-05T03:50:45.480Z,99.90
2023-05-05T03:53:16.268Z,99.90
2023-05-05T03:55:44.788Z,99.90
2023-05-05T03:58:13.007Z,99.90
2023-05-05T04:00:41.221Z,99.90
2023-05-05T04:03:09.543Z,99.90
2023-05-05T04:05:38.010Z,99.90
2023-05-05T04:08:06.476Z,99.90
2023-05-05T04:10:35.894Z,99.90
2023-05-05T04:13:04.206Z,99.90
2023-05-05T04:15:32.818Z,99.90
2023-05-05T04:18:01.912Z,99.90
2023-05-05T04:20:30.316Z,99.90
2023-05-05T04:22:58.553Z,99.90
2023-05-05T04:25:26.590Z,99.90
2023-05-05T04:27:56.413Z,99.90
2023-05-05T04:30:24.365Z,99.90
2023-05-05T04:32:52.451Z,99.90
2023-05-05T04:35:20.703Z,99.90
2023-05-05T04:37:48.839Z,99.90
2023-05-05T04:40:17.093Z,99.90
2023-05-05T04:42:45.521Z,99.90
2023-05-05T04:45:15.141Z,99.90
2023-05-05T04:47:43.229Z,99.90
2023-05-05T04:50:12.372Z,99.90
2023-05-05T04:52:40.478Z,99.90
2023-05-05T04:55:11.320Z,99.90
2023-05-05T04:57:39.468Z,99.90
2023-05-05T05:00:09.610Z,99.90
2023-05-05T05:02:40.067Z,99.90
2023-05-05T05:05:09.511Z,99.90
2023-05-05T05:07:37.881Z,99.90
2023-05-05T05:10:07.119Z,99.90
2023-05-05T05:12:35.477Z,99.90
2023-05-05T05:15:03.546Z,99.90
2023-05-05T05:17:31.661Z,99.90
2023-05-05T05:20:04.770Z,99.90
2023-05-05T05:22:34.876Z,99.90
2023-05-05T05:25:03.585Z,99.90
2023-05-05T05:27:31.938Z,99.90
2023-05-05T05:29:59.925Z,99.90
2023-05-05T05:32:28.465Z,99.90
2023-05-05T05:34:56.849Z,99.90
2023-05-05T05:37:31.017Z,99.90
2023-05-05T05:40:00.095Z,99.90
2023-05-05T05:42:30.068Z,99.90
2023-05-05T05:44:58.695Z,99.90
2023-05-05T05:47:26.954Z,99.90
2023-05-05T05:49:56.411Z,99.90
2023-05-05T05:52:25.940Z,99.90
2023-05-05T05:54:53.993Z,99.90
2023-05-05T05:57:23.738Z,99.90
2023-05-05T05:59:53.888Z,99.90
2023-05-05T06:02:22.942Z,99.90
2023-05-05T06:04:51.075Z,99.90
2023-05-05T06:07:19.262Z,99.90
2023-05-05T06:09:49.622Z,99.90
2023-05-05T06:12:17.567Z,99.30
2023-05-05T06:14:45.712Z,99.20
2023-05-05T06:17:13.708Z,98.10
2023-05-05T06:19:43.386Z,98.00
2023-05-05T06:22:12.335Z,97.40
2023-05-05T06:24:40.697Z,97.30
2023-05-05T06:27:10.128Z,96.80
2023-05-05T06:29:38.122Z,97.40
2023-05-05T06:32:08.253Z,97.20
2023-05-05T06:34:36.229Z,97.20
2023-05-05T06:37:04.202Z,97.60
2023-05-05T06:39:32.200Z,99.10
2023-05-05T06:42:00.205Z,99.20
2023-05-05T06:44:31.100Z,98.90
2023-05-05T06:46:59.210Z,99.60
2023-05-05T06:49:27.459Z,98.30
2023-05-05T06:51:55.445Z,99.40
2023-05-05T06:54:23.530Z,99.80
2023-05-05T06:56:51.544Z,97.40
2023-05-05T06:59:19.510Z,97.40
2023-05-05T07:01:48.896Z,96.60
2023-05-05T07:04:17.207Z,97.10
2023-05-05T07:06:45.226Z,97.00
2023-05-05T07:09:15.241Z,95.30
2023-05-05T07:11:45.029Z,95.70
2023-05-05T07:14:13.053Z,95.60
2023-05-05T07:16:41.112Z,92.20
2023-05-05T07:19:10.464Z,92.40
2023-05-05T07:21:39.713Z,90.60
2023-05-05T07:24:08.354Z,90.60
2023-05-05T07:26:36.423Z,91.40
2023-05-05T07:29:07.081Z,88.20
2023-05-05T07:31:35.137Z,88.40
2023-05-05T07:34:04.066Z,86.70
2023-05-05T07:36:33.611Z,82.70
2023-05-05T07:39:01.664Z,82.80
2023-05-05T07:41:29.660Z,79.90
2023-05-05T07:43:57.773Z,76.40
2023-05-05T07:46:25.807Z,80.40
2023-05-05T07:48:53.916Z,76.10
2023-05-05T07:51:22.047Z,74.20
2023-05-05T07:53:51.421Z,74.40
2023-05-05T07:56:21.558Z,71.20
2023-05-05T07:58:49.847Z,74.60
2023-05-05T08:01:17.816Z,70.20
2023-05-05T08:03:46.014Z,68.60
2023-05-05T08:06:16.740Z,72.00
2023-05-05T08:08:44.705Z,67.50
2023-05-05T08:11:14.149Z,70.00
2023-05-05T08:13:42.859Z,71.10
2023-05-05T08:16:11.201Z,72.90
2023-05-05T08:18:39.612Z,69.40
2023-05-05T08:21:08.712Z,67.60
2023-05-05T08:23:37.350Z,67.70
2023-05-05T08:26:06.477Z,68.90
2023-05-05T08:28:36.773Z,69.60
2023-05-05T08:31:05.554Z,69.60
2023-05-05T08:33:33.651Z,71.20
2023-05-05T08:36:01.638Z,73.50
2023-05-05T08:38:29.784Z,69.30
2023-05-05T08:40:57.881Z,70.70
2023-05-05T08:43:26.018Z,66.30
2023-05-05T08:45:56.984Z,66.40
2023-05-05T08:48:29.036Z,70.30
2023-05-05T08:51:01.934Z,68.00
2023-05-05T08:53:42.521Z,68.90
2023-05-05T08:56:12.107Z,66.10
2023-05-05T08:58:41.537Z,65.70
2023-05-05T09:01:11.741Z,66.10
2023-05-05T09:03:40.556Z,62.20
2023-05-05T09:06:09.803Z,64.00
2023-05-05T09:08:38.657Z,63.30
2023-05-05T09:11:07.074Z,64.70
2023-05-05T09:13:35.109Z,61.10
2023-05-05T09:16:03.089Z,63.30
2023-05-05T09:18:32.505Z,66.00
2023-05-05T09:21:00.530Z,63.60
2023-05-05T09:23:28.528Z,65.50
2023-05-05T09:26:08.825Z,63.40
2023-05-05T09:28:37.624Z,58.30
2023-05-05T09:31:16.095Z,55.50
2023-05-05T09:33:45.747Z,63.70
2023-05-05T09:36:13.766Z,61.80
2023-05-05T09:38:41.788Z,62.60
2023-05-05T09:41:09.874Z,62.40
2023-05-05T09:43:55.612Z,61.90
2023-05-05T09:46:23.651Z,60.60
2023-05-05T09:48:53.035Z,61.50
2023-05-05T09:51:29.879Z,61.50
2023-05-05T09:53:58.696Z,58.50
2023-05-05T09:56:38.472Z,61.10
2023-05-05T09:59:10.534Z,63.70
2023-05-05T10:01:39.191Z,59.70
2023-05-05T10:04:08.666Z,61.70
2023-05-05T10:06:47.019Z,60.70
2023-05-05T10:09:15.396Z,58.50
2023-05-05T10:11:46.114Z,58.80
2023-05-05T10:14:15.680Z,60.10
2023-05-05T10:16:49.785Z,60.90
2023-05-05T10:19:21.509Z,60.80
2023-05-05T10:21:52.475Z,64.60
2023-05-05T10:24:31.215Z,61.50
2023-05-05T10:27:00.127Z,61.20
2023-05-05T10:29:37.709Z,60.60
2023-05-05T10:32:40.643Z,61.00
2023-05-05T10:35:05.118Z,62.90
2023-05-05T10:37:34.131Z,65.60
2023-05-05T10:40:03.110Z,61.90
2023-05-05T10:42:32.205Z,62.20
2023-05-05T10:45:00.299Z,64.90
2023-05-05T10:47:29.889Z,64.80
2023-05-05T10:50:05.158Z,60.00
2023-05-05T10:52:39.180Z,60.50
2023-05-05T10:55:13.894Z,59.80
2023-05-05T10:57:44.893Z,61.30
2023-05-05T11:00:49.715Z,59.90
2023-05-05T11:03:22.638Z,60.30
2023-05-05T11:06:14.077Z,58.50
2023-05-05T11:08:43.950Z,60.50
2023-05-05T11:11:13.296Z,63.80
2023-05-05T11:13:41.927Z,62.60
2023-05-05T11:16:45.476Z,63.20
2023-05-05T11:19:48.537Z,59.50
2023-05-05T11:22:17.968Z,63.30
2023-05-05T11:24:47.264Z,61.30
2023-05-05T11:27:15.410Z,61.90
2023-05-05T11:30:05.775Z,61.60
2023-05-05T11:32:34.678Z,64.10
2023-05-05T11:35:03.932Z,62.00
2023-05-05T11:37:34.528Z,63.80
2023-05-05T11:40:11.048Z,62.40
2023-05-05T11:42:39.145Z,63.80
2023-05-05T11:45:21.607Z,62.40
2023-05-05T11:47:49.884Z,58.60
2023-05-05T11:50:21.355Z,62.00
2023-05-05T11:52:50.925Z,64.40
2023-05-05T11:55:25.783Z,62.40
2023-05-05T11:57:54.509Z,61.30
2023-05-05T12:00:33.747Z,61.20
2023-05-05T12:03:02.114Z,62.90
2023-05-05T12:05:30.802Z,64.70
2023-05-05T12:08:00.519Z,61.70
2023-05-05T12:10:28.974Z,65.90
2023-05-05T12:12:57.012Z,65.00
2023-05-05T12:15:32.200Z,62.80
2023-05-05T12:18:02.817Z,66.00
2023-05-05T12:20:33.227Z,62.30
2023-05-05T12:23:04.241Z,65.50
2023-05-05T12:25:40.342Z,64.20
2023-05-05T12:28:09.515Z,63.70
2023-05-05T12:30:37.742Z,64.60
2023-05-05T12:33:07.292Z,64.80
2023-05-05T12:35:35.684Z,69.10
2023-05-05T12:38:05.304Z,67.90
2023-05-05T12:40:51.733Z,64.00
2023-05-05T12:43:30.674Z,65.90
2023-05-05T12:46:06.690Z,63.80
2023-05-05T12:48:35.741Z,66.00
2023-05-05T12:51:18.126Z,64.00
2023-05-05T12:53:48.466Z,64.60
2023-05-05T12:56:36.884Z,67.80
2023-05-05T12:59:07.497Z,68.60
2023-05-05T13:01:36.439Z,67.70
2023-05-05T13:04:10.633Z,64.30
2023-05-05T13:06:39.244Z,68.10
2023-05-05T13:09:08.987Z,67.60
2023-05-05T13:11:37.885Z,66.60
2023-05-05T13:14:07.362Z,66.40
2023-05-05T13:16:35.946Z,65.80
2023-05-05T13:19:04.121Z,67.00
2023-05-05T13:21:32.473Z,71.60
2023-05-05T13:24:18.320Z,73.10
2023-05-05T13:26:49.787Z,68.70
2023-05-05T13:29:18.086Z,72.30
2023-05-05T13:31:46.710Z,73.60
2023-05-05T13:34:14.891Z,72.10
2023-05-05T13:36:42.927Z,73.30
2023-05-05T13:39:11.269Z,73.70
2023-05-05T13:41:39.515Z,71.20
2023-05-05T13:44:08.865Z,71.00
2023-05-05T13:46:36.969Z,72.10
2023-05-05T13:49:05.001Z,72.70
2023-05-05T13:51:34.657Z,72.10
2023-05-05T13:54:03.019Z,71.50
2023-05-05T13:56:31.356Z,72.00
2023-05-05T13:58:59.528Z,71.50
2023-05-05T14:01:29.286Z,71.20
2023-05-05T14:03:57.889Z,70.50
2023-05-05T14:06:26.533Z,70.50
2023-05-05T14:08:54.747Z,70.30
2023-05-05T14:11:22.906Z,70.00
2023-05-05T14:13:52.030Z,69.20
2023-05-05T14:16:20.170Z,70.20
2023-05-05T14:18:51.588Z,70.30
2023-05-05T14:21:19.580Z,70.30
2023-05-05T14:23:47.570Z,68.80
2023-05-05T14:26:15.521Z,67.30
2023-05-05T14:28:46.761Z,72.20
2023-05-05T14:31:17.437Z,68.90
2023-05-05T14:33:45.416Z,69.30
2023-05-05T14:36:15.207Z,69.10
2023-05-05T14:38:43.510Z,69.20
2023-05-05T14:41:11.658Z,67.80
2023-05-05T14:43:43.381Z,70.70
2023-05-05T14:46:11.588Z,70.60
2023-05-05T14:48:39.721Z,72.10
2023-05-05T14:51:07.810Z,69.30
2023-05-05T14:53:37.148Z,71.00
2023-05-05T14:56:05.435Z,72.70
2023-05-05T14:58:35.380Z,71.90
2023-05-05T15:01:03.469Z,71.80
2023-05-05T15:03:32.896Z,73.70
2023-05-05T15:06:01.266Z,74.20
2023-05-05T15:08:29.249Z,72.50
2023-05-05T15:10:58.535Z,74.60
2023-05-05T15:13:27.170Z,73.10
2023-05-05T15:15:55.107Z,72.20
2023-05-05T15:18:23.080Z,71.20
2023-05-05T15:20:51.149Z,72.60
2023-05-05T15:23:19.182Z,72.70
2023-05-05T15:25:47.167Z,73.70
2023-05-05T15:28:17.298Z,73.40
2023-05-05T15:30:45.436Z,74.70
2023-05-05T15:33:13.406Z,74.30
2023-05-05T15:35:41.393Z,73.70
2023-05-05T15:38:10.300Z,74.80
2023-05-05T15:40:38.274Z,73.80
2023-05-05T15:43:06.841Z,74.60
2023-05-05T15:45:36.440Z,75.60
2023-05-05T15:48:04.676Z,76.50
2023-05-05T15:50:32.749Z,75.20
2023-05-05T15:53:00.812Z,76.30
2023-05-05T15:55:28.888Z,77.20
2023-05-05T15:57:56.864Z,76.70
2023-05-05T16:00:26.030Z,77.60
2023-05-05T16:02:56.150Z,79.20
2023-05-05T16:05:24.158Z,81.10
2023-05-05T16:07:53.602Z,82.60
2023-05-05T16:10:21.848Z,83.50
2023-05-05T16:12:52.110Z,83.80
2023-05-05T16:15:20.461Z,87.20
2023-05-05T16:17:48.493Z,90.20
2023-05-05T16:20:18.332Z,91.90
2023-05-05T16:22:46.317Z,92.70
2023-05-05T16:25:17.400Z,91.60
2023-05-05T16:27:45.411Z,93.50
2023-05-05T16:30:15.460Z,95.20
2023-05-05T16:32:43.974Z,96.60
2023-05-05T16:35:12.195Z,97.80
2023-05-05T16:37:41.651Z,98.20
2023-05-05T16:40:10.976Z,99.20
2023-05-05T16:42:39.039Z,99.90
2023-05-05T16:45:09.321Z,99.90
2023-05-05T16:47:37.713Z,99.90
2023-05-05T16:50:07.041Z,99.90
2023-05-05T16:52:34.973Z,99.90
2023-05-05T16:55:04.946Z,99.90
2023-05-05T16:57:32.961Z,99.90
2023-05-05T17:00:00.899Z,99.90
2023-05-05T17:02:28.937Z,99.90
2023-05-05T17:04:56.927Z,99.90
2023-05-05T17:07:25.030Z,99.90
2023-05-05T17:09:53.107Z,99.90
2023-05-05T17:12:22.396Z,99.90
2023-05-05T17:14:51.307Z,99.90
2023-05-05T17:17:19.283Z,99.90
2023-05-05T17:19:47.235Z,99.90
2023-05-05T17:22:15.258Z,99.90
2023-05-05T17:24:43.217Z,99.90
2023-05-05T17:27:11.255Z,99.90
2023-05-05T17:29:41.330Z,99.90
2023-05-05T17:32:09.866Z,99.90
2023-05-05T17:34:38.033Z,99.90
2023-05-05T17:37:05.998Z,99.90
2023-05-05T17:39:34.106Z,99.90
2023-05-05T17:42:02.183Z,99.90
2023-05-05T17:44:31.405Z,99.90
2023-05-05T17:47:02.722Z,99.90
2023-05-05T17:49:30.838Z,99.90
2023-05-05T17:51:58.915Z,99.90
2023-05-05T17:54:27.118Z,99.90
2023-05-05T17:56:55.078Z,99.90
2023-05-05T17:59:23.503Z,99.90
2023-05-05T18:01:51.495Z,99.90
2023-05-05T18:04:20.849Z,99.90
2023-05-05T18:06:48.836Z,99.90
2023-05-05T18:09:17.216Z,99.90
2023-05-05T18:11:45.290Z,99.90
2023-05-05T18:14:13.530Z,99.90
2023-05-05T18:16:43.790Z,99.90
2023-05-05T18:19:11.826Z,99.90
2023-05-05T18:21:41.264Z,99.90
2023-05-05T18:24:19.559Z,99.90
2023-05-05T18:26:49.424Z,99.90
2023-05-05T18:29:17.708Z,99.90
2023-05-05T18:31:48.342Z,99.90
2023-05-05T18:34:17.643Z,99.90
2023-05-05T18:36:47.307Z,99.90
2023-05-05T18:39:15.470Z,99.90
2023-05-05T18:41:43.446Z,99.90
2023-05-05T18:44:11.626Z,99.90
2023-05-05T18:46:39.721Z,99.90
2023-05-05T18:49:08.404Z,99.90
2023-05-05T18:51:36.389Z,99.90
2023-05-05T18:54:05.996Z,99.90
2023-05-05T18:56:34.034Z,99.90
2023-05-05T18:59:02.041Z,99.90
2023-05-05T19:01:30.500Z,99.90
2023-05-05T19:03:58.433Z,99.90
2023-05-05T19:06:27.273Z,99.90
2023-05-05T19:08:56.772Z,99.90
2023-05-05T19:11:26.223Z,99.90
2023-05-05T19:13:54.145Z,99.90
2023-05-05T19:16:22.285Z,99.90
2023-05-05T19:18:50.446Z,99.90
2023-05-05T19:21:18.846Z,99.90
2023-05-05T19:23:46.978Z,99.90
2023-05-05T19:26:16.171Z,99.90
2023-05-05T19:28:45.434Z,99.90
2023-05-05T19:31:13.824Z,99.90
2023-05-05T19:33:45.565Z,99.90
2023-05-05T19:36:14.019Z,99.90
2023-05-05T19:38:44.509Z,99.90
2023-05-05T19:41:13.379Z,99.90
2023-05-05T19:43:41.480Z,99.90
2023-05-05T19:46:10.790Z,99.90
2023-05-05T19:48:39.144Z,99.90
2023-05-05T19:51:07.344Z,99.90
2023-05-05T19:53:35.882Z,99.90
2023-05-05T19:56:05.080Z,99.90
2023-05-05T19:58:50.766Z,99.90
2023-05-05T20:01:20.737Z,99.90
2023-05-05T20:03:49.200Z,99.90
2023-05-05T20:06:17.780Z,99.90
2023-05-05T20:08:46.404Z,99.90
2023-05-05T20:11:16.209Z,99.90
2023-05-05T20:13:44.864Z,99.90
2023-05-05T20:16:13.536Z,99.90
2023-05-05T20:18:43.465Z,99.90
2023-05-05T20:21:11.945Z,99.90
2023-05-05T20:23:40.354Z,99.90
2023-05-05T20:26:12.922Z,99.90
2023-05-05T20:28:42.639Z,99.90
2023-05-05T20:31:16.557Z,99.90
2023-05-05T20:33:46.052Z,99.90
2023-05-05T20:36:14.493Z,99.90
2023-05-05T20:38:42.465Z,99.90
2023-05-05T20:41:11.497Z,99.90
2023-05-05T20:43:40.458Z,99.90
2023-05-05T20:46:13.038Z,99.90
2023-05-05T20:48:43.061Z,99.90
2023-05-05T20:51:12.951Z,99.90
2023-05-05T20:53:41.663Z,99.90
2023-05-05T20:56:09.938Z,99.90
2023-05-05T20:58:38.428Z,99.90
2023-05-05T21:01:06.615Z,99.90
2023-05-05T21:03:34.867Z,99.90
2023-05-05T21:06:03.557Z,99.90
2023-05-05T21:08:33.209Z,99.90
2023-05-05T21:11:01.605Z,99.90
2023-05-05T21:13:33.111Z,99.90
2023-05-05T21:16:01.617Z,99.90
2023-05-05T21:18:30.137Z,99.90
2023-05-05T21:20:58.842Z,99.90
2023-05-05T21:23:26.964Z,99.90
2023-05-05T21:25:56.870Z,99.90
2023-05-05T21:28:25.179Z,99.90
2023-05-05T21:33:24.057Z,99.90
2023-05-05T21:35:52.007Z,99.90
2023-05-05T21:38:19.919Z,99.90
2023-05-05T21:40:47.904Z,99.90
2023-05-05T21:43:17.426Z,99.90
2023-05-05T21:45:45.725Z,99.90
2023-05-05T21:48:13.660Z,99.90
2023-05-05T21:50:41.610Z,99.90
2023-05-05T21:53:09.647Z,99.90
2023-05-05T21:55:37.698Z,99.90
2023-05-05T21:58:05.632Z,99.90
2023-05-05T22:00:34.960Z,99.90
2023-05-05T22:03:03.372Z,99.90
2023-05-05T22:05:31.946Z,99.90
2023-05-05T22:07:59.895Z,99.90
2023-05-05T22:10:28.495Z,99.90
2023-05-05T22:12:56.754Z,99.90
2023-05-05T22:15:29.893Z,99.90
2023-05-05T22:18:02.084Z,99.90
2023-05-05T22:20:30.294Z,99.90
2023-05-05T22:22:58.294Z,99.90
2023-05-05T22:25:26.603Z,99.90
2023-05-05T22:27:55.734Z,99.90
2023-05-05T22:30:23.714Z,99.90
2023-05-05T22:32:51.697Z,99.90
2023-05-05T22:35:21.211Z,99.90
2023-05-05T22:37:49.182Z,99.90
2023-05-05T22:40:17.253Z,99.90
2023-05-05T22:42:45.312Z,99.90
2023-05-05T22:45:13.877Z,99.90
2023-05-05T22:47:42.010Z,99.90
2023-05-05T22:50:10.766Z,99.90
2023-05-05T22:52:40.131Z,99.90
2023-05-05T22:55:09.165Z,99.90
2023-05-05T22:57:37.500Z,99.90
2023-05-05T23:00:06.654Z,99.90
2023-05-05T23:02:34.591Z,99.90
2023-05-05T23:05:02.632Z,99.90
2023-05-05T23:07:30.607Z,99.90
2023-05-05T23:10:00.060Z,99.90
2023-05-05T23:12:27.996Z,99.90
2023-05-05T23:14:56.029Z,99.90
2023-05-05T23:17:24.080Z,99.90
2023-05-05T23:19:52.136Z,99.90
2023-05-05T23:22:20.199Z,99.90
2023-05-05T23:24:48.242Z,99.90
2023-05-05T23:27:17.551Z,99.90
2023-05-05T23:29:45.629Z,99.90
2023-05-05T23:32:13.629Z,99.90
2023-05-05T23:34:41.685Z,99.90
2023-05-05T23:37:09.710Z,99.90
2023-05-05T23:39:37.695Z,99.90
2023-05-05T23:42:05.734Z,99.90
2023-05-05T23:44:35.173Z,99.90
2023-05-05T23:47:03.346Z,99.90
2023-05-05T23:49:31.412Z,99.90
2023-05-05T23:51:59.599Z,99.90
2023-05-05T23:54:28.057Z,99.90
2023-05-05T23:56:56.679Z,99.90
2023-05-05T23:59:24.649Z,99.90
